createdAt,value
2022-09-23T00:00:02.404Z,1
2022-09-23T00:01:46.102Z,1
2022-09-23T00:03:29.795Z,1
2022-09-23T00:05:13.494Z,1
2022-09-23T00:06:57.289Z,1
2022-09-23T00:08:40.903Z,1
2022-09-23T00:10:24.619Z,2
2022-09-23T00:12:08.307Z,2
2022-09-23T00:15:35.709Z,1
2022-09-23T00:17:19.430Z,2
2022-09-23T00:19:03.107Z,1
2022-09-23T00:20:46.812Z,1
2022-09-23T00:22:30.543Z,1
2022-09-23T00:24:14.223Z,2
2022-09-23T00:25:57.924Z,1
2022-09-23T00:27:41.619Z,1
2022-09-23T00:29:25.338Z,1
2022-09-23T00:31:09.041Z,1
2022-09-23T00:32:52.773Z,1
2022-09-23T00:34:36.434Z,1
2022-09-23T00:36:20.184Z,1
2022-09-23T00:38:03.835Z,1
2022-09-23T00:39:47.577Z,1
2022-09-23T00:41:31.330Z,1
2022-09-23T00:43:14.967Z,1
2022-09-23T00:44:58.649Z,1
2022-09-23T00:46:42.394Z,1
2022-09-23T00:48:26.055Z,1
2022-09-23T00:50:09.767Z,1
2022-09-23T00:51:53.477Z,2
2022-09-23T00:53:37.178Z,1
2022-09-23T00:55:20.862Z,1
2022-09-23T00:57:04.567Z,1
2022-09-23T00:58:48.306Z,1
2022-09-23T01:00:32.026Z,1
2022-09-23T01:02:15.667Z,3
2022-09-23T01:03:59.355Z,1
2022-09-23T01:05:43.065Z,1
2022-09-23T01:07:26.853Z,1
2022-09-23T01:09:10.476Z,1
2022-09-23T01:10:54.183Z,1
2022-09-23T01:12:37.870Z,1
2022-09-23T01:14:21.579Z,2
2022-09-23T01:16:05.341Z,1
2022-09-23T01:17:48.985Z,1
2022-09-23T01:19:32.764Z,2
2022-09-23T01:21:16.381Z,1
2022-09-23T01:23:00.099Z,2
2022-09-23T01:24:43.820Z,1
2022-09-23T01:26:27.536Z,1
2022-09-23T01:28:11.227Z,1
2022-09-23T01:29:54.958Z,1
2022-09-23T01:31:38.589Z,1
2022-09-23T01:33:22.409Z,1
2022-09-23T01:35:06.011Z,0
2022-09-23T01:36:49.689Z,0
2022-09-23T01:38:33.490Z,1
2022-09-23T01:40:17.092Z,1
2022-09-23T01:42:00.792Z,1
2022-09-23T01:43:44.537Z,2
2022-09-23T01:45:28.198Z,2
2022-09-23T01:47:11.897Z,1
2022-09-23T01:48:55.604Z,1
2022-09-23T01:50:39.304Z,0
2022-09-23T01:52:23.066Z,1
2022-09-23T01:54:06.712Z,1
2022-09-23T01:55:50.430Z,0
2022-09-23T01:57:34.144Z,2
2022-09-23T01:59:17.810Z,1
2022-09-23T02:01:01.507Z,1
2022-09-23T02:02:45.211Z,0
2022-09-23T02:04:28.908Z,2
2022-09-23T02:06:12.634Z,1
2022-09-23T02:07:56.312Z,1
2022-09-23T02:09:40.059Z,0
2022-09-23T02:11:23.728Z,1
2022-09-23T02:13:07.438Z,1
2022-09-23T02:14:51.140Z,1
2022-09-23T02:16:34.826Z,2
2022-09-23T02:18:18.531Z,1
2022-09-23T02:20:02.284Z,1
2022-09-23T02:21:45.934Z,1
2022-09-23T02:23:29.661Z,1
2022-09-23T02:25:13.357Z,1
2022-09-23T02:26:57.127Z,1
2022-09-23T02:28:40.748Z,1
2022-09-23T02:30:24.448Z,1
2022-09-23T02:32:08.154Z,0
2022-09-23T02:33:51.855Z,1
2022-09-23T02:35:35.551Z,1
2022-09-23T02:37:19.240Z,1
2022-09-23T02:39:02.949Z,1
2022-09-23T02:40:46.727Z,1
2022-09-23T02:42:30.346Z,1
2022-09-23T02:44:14.044Z,1
2022-09-23T02:45:57.754Z,1
2022-09-23T02:47:41.491Z,0
2022-09-23T02:49:25.162Z,1
2022-09-23T02:51:08.881Z,1
2022-09-23T02:52:52.582Z,1
2022-09-23T02:54:36.260Z,1
2022-09-23T02:56:19.983Z,1
2022-09-23T02:58:03.658Z,1
2022-09-23T03:01:31.072Z,1
2022-09-23T03:03:14.765Z,1
2022-09-23T03:04:58.508Z,1
2022-09-23T03:06:42.217Z,1
2022-09-23T03:08:25.874Z,1
2022-09-23T03:10:09.575Z,1
2022-09-23T03:11:53.280Z,1
2022-09-23T03:13:36.986Z,2
2022-09-23T03:15:20.675Z,1
2022-09-23T03:17:04.426Z,1
2022-09-23T03:18:48.087Z,1
2022-09-23T03:20:31.782Z,1
2022-09-23T03:22:15.488Z,1
2022-09-23T03:23:59.193Z,1
2022-09-23T03:25:42.941Z,1
2022-09-23T03:27:26.597Z,1
2022-09-23T03:29:10.298Z,0
2022-09-23T03:30:54.010Z,1
2022-09-23T03:32:37.716Z,1
2022-09-23T03:34:21.555Z,2
2022-09-23T03:36:05.101Z,2
2022-09-23T03:37:48.867Z,1
2022-09-23T03:39:32.501Z,1
2022-09-23T03:41:16.242Z,2
2022-09-23T03:42:59.913Z,1
2022-09-23T03:44:43.625Z,1
2022-09-23T03:46:27.307Z,1
2022-09-23T03:48:11.015Z,0
2022-09-23T03:49:54.709Z,1
2022-09-23T03:51:38.414Z,2
2022-09-23T03:53:22.120Z,1
2022-09-23T03:55:05.851Z,1
2022-09-23T03:56:49.527Z,1
2022-09-23T03:58:33.250Z,1
2022-09-23T04:00:16.923Z,1
2022-09-23T04:02:00.629Z,1
2022-09-23T04:03:44.321Z,1
2022-09-23T04:05:28.039Z,2
2022-09-23T04:07:11.742Z,1
2022-09-23T04:08:55.485Z,1
2022-09-23T04:10:39.131Z,2
2022-09-23T04:12:22.839Z,2
2022-09-23T04:14:06.533Z,1
2022-09-23T04:15:50.243Z,1
2022-09-23T04:17:33.936Z,1
2022-09-23T04:19:17.692Z,1
2022-09-23T04:21:01.347Z,1
2022-09-23T04:22:45.039Z,2
2022-09-23T04:24:28.753Z,1
2022-09-23T04:26:12.447Z,2
2022-09-23T04:27:56.235Z,3
2022-09-23T04:29:39.849Z,2
2022-09-23T04:31:23.555Z,2
2022-09-23T04:33:07.259Z,2
2022-09-23T04:34:50.963Z,2
2022-09-23T04:36:34.662Z,2
2022-09-23T04:38:18.362Z,3
2022-09-23T04:40:02.070Z,3
2022-09-23T04:41:45.765Z,3
2022-09-23T04:43:29.518Z,4
2022-09-23T04:45:13.230Z,4
2022-09-23T04:46:56.877Z,4
2022-09-23T04:48:40.593Z,5
2022-09-23T04:50:24.335Z,7
2022-09-23T04:52:07.990Z,9
2022-09-23T04:53:51.686Z,12
2022-09-23T04:55:35.395Z,16
2022-09-23T04:57:19.097Z,22
2022-09-23T04:59:02.835Z,28
2022-09-23T05:00:46.497Z,35
2022-09-23T05:02:30.211Z,43
2022-09-23T05:04:13.936Z,50
2022-09-23T05:05:57.604Z,60
2022-09-23T05:07:41.310Z,69
2022-09-23T05:09:25.014Z,80
2022-09-23T05:11:08.777Z,91
2022-09-23T05:12:52.413Z,102
2022-09-23T05:14:36.136Z,114
2022-09-23T05:16:19.855Z,127
2022-09-23T05:18:03.524Z,139
2022-09-23T05:19:47.250Z,155
2022-09-23T05:21:30.943Z,183
2022-09-23T05:23:14.630Z,207
2022-09-23T05:24:58.370Z,228
2022-09-23T05:26:42.095Z,251
2022-09-23T05:28:25.741Z,273
2022-09-23T05:30:09.472Z,298
2022-09-23T05:31:53.140Z,333
2022-09-23T05:33:36.849Z,361
2022-09-23T05:35:20.553Z,370
2022-09-23T05:37:04.271Z,380
2022-09-23T05:38:47.953Z,385
2022-09-23T05:40:31.657Z,388
2022-09-23T05:42:15.377Z,388
2022-09-23T05:43:59.047Z,438
2022-09-23T05:45:42.785Z,505
2022-09-23T05:47:26.463Z,529
2022-09-23T05:49:10.233Z,547
2022-09-23T05:50:53.862Z,560
2022-09-23T05:52:37.565Z,573
2022-09-23T05:54:21.268Z,586
2022-09-23T05:56:05.093Z,586
2022-09-23T05:57:48.785Z,624
2022-09-23T05:59:32.386Z,636
2022-09-23T06:01:16.078Z,667
2022-09-23T06:02:59.784Z,699
2022-09-23T06:04:43.592Z,740
2022-09-23T06:06:27.296Z,732
2022-09-23T06:08:10.905Z,740
2022-09-23T06:09:54.597Z,741
2022-09-23T06:11:38.426Z,741
2022-09-23T06:13:22.033Z,740
2022-09-23T06:15:05.709Z,740
2022-09-23T06:16:49.416Z,740
2022-09-23T06:18:33.170Z,741
2022-09-23T06:20:16.804Z,739
2022-09-23T06:22:00.523Z,740
2022-09-23T06:23:44.367Z,741
2022-09-23T06:25:27.942Z,741
2022-09-23T06:27:11.696Z,740
2022-09-23T06:28:55.319Z,741
2022-09-23T06:30:39.018Z,742
2022-09-23T06:32:22.721Z,741
2022-09-23T06:34:06.457Z,741
2022-09-23T06:35:50.279Z,740
2022-09-23T06:37:33.931Z,741
2022-09-23T06:39:17.540Z,735
2022-09-23T06:41:01.237Z,740
2022-09-23T06:42:44.937Z,742
2022-09-23T06:44:28.647Z,741
2022-09-23T06:46:12.338Z,740
2022-09-23T06:47:56.046Z,740
2022-09-23T06:49:39.744Z,741
2022-09-23T06:51:23.444Z,742
2022-09-23T06:53:07.158Z,740
2022-09-23T06:54:50.855Z,740
2022-09-23T06:56:34.558Z,742
2022-09-23T06:58:18.268Z,738
2022-09-23T07:00:01.964Z,741
2022-09-23T07:01:45.677Z,741
2022-09-23T07:03:29.367Z,741
2022-09-23T07:05:13.076Z,740
2022-09-23T07:06:56.775Z,741
2022-09-23T07:08:40.469Z,742
2022-09-23T07:10:24.179Z,741
2022-09-23T07:12:07.881Z,740
2022-09-23T07:13:51.577Z,741
2022-09-23T07:15:35.287Z,741
2022-09-23T07:17:18.986Z,740
2022-09-23T07:19:02.692Z,740
2022-09-23T07:20:46.385Z,740
2022-09-23T07:22:30.095Z,741
2022-09-23T07:24:13.796Z,740
2022-09-23T07:25:57.536Z,741
2022-09-23T07:27:41.197Z,741
2022-09-23T07:29:24.902Z,741
2022-09-23T07:31:08.606Z,741
2022-09-23T07:32:52.308Z,740
2022-09-23T07:34:36.012Z,741
2022-09-23T07:36:19.719Z,741
2022-09-23T07:38:03.409Z,741
2022-09-23T07:39:47.121Z,740
2022-09-23T07:41:30.825Z,732
2022-09-23T07:43:14.520Z,741
2022-09-23T07:44:58.225Z,740
2022-09-23T07:46:41.923Z,741
2022-09-23T07:48:25.629Z,742
2022-09-23T07:50:09.335Z,741
2022-09-23T07:51:53.031Z,741
2022-09-23T07:53:36.733Z,740
2022-09-23T07:55:20.435Z,742
2022-09-23T07:57:04.136Z,741
2022-09-23T07:58:47.842Z,740
2022-09-23T08:00:31.548Z,741
2022-09-23T08:02:15.242Z,741
2022-09-23T08:03:58.958Z,740
2022-09-23T08:05:42.659Z,738
2022-09-23T08:07:26.363Z,741
2022-09-23T08:09:10.055Z,741
2022-09-23T08:10:53.778Z,740
2022-09-23T08:12:37.463Z,741
2022-09-23T08:14:21.173Z,741
2022-09-23T08:16:04.869Z,741
2022-09-23T08:17:48.585Z,741
2022-09-23T08:19:32.276Z,739
2022-09-23T08:21:15.967Z,741
2022-09-23T08:22:59.678Z,741
2022-09-23T08:24:43.376Z,740
2022-09-23T08:26:27.072Z,740
2022-09-23T08:28:10.785Z,741
2022-09-23T08:29:54.479Z,740
2022-09-23T08:31:38.182Z,740
2022-09-23T08:33:21.885Z,741
2022-09-23T08:35:05.590Z,741
2022-09-23T08:36:49.287Z,740
2022-09-23T08:38:33.004Z,739
2022-09-23T08:40:16.692Z,742
2022-09-23T08:42:00.430Z,741
2022-09-23T08:43:44.094Z,740
2022-09-23T08:45:27.789Z,740
2022-09-23T08:47:11.497Z,741
2022-09-23T08:48:55.199Z,741
2022-09-23T08:50:38.906Z,741
2022-09-23T08:52:22.607Z,741
2022-09-23T08:54:06.304Z,741
2022-09-23T08:55:50.009Z,741
2022-09-23T08:57:33.716Z,741
2022-09-23T08:59:17.414Z,740
2022-09-23T09:01:01.119Z,741
2022-09-23T09:02:44.875Z,741
2022-09-23T09:04:28.517Z,741
2022-09-23T09:06:12.220Z,741
2022-09-23T09:07:55.925Z,733
2022-09-23T09:09:39.626Z,741
2022-09-23T09:11:23.331Z,741
2022-09-23T09:13:07.029Z,741
2022-09-23T09:14:50.737Z,741
2022-09-23T09:16:34.446Z,740
2022-09-23T09:18:18.145Z,741
2022-09-23T09:20:01.841Z,741
2022-09-23T09:21:45.581Z,742
2022-09-23T09:23:29.237Z,740
2022-09-23T09:25:12.949Z,741
2022-09-23T09:26:56.647Z,732
2022-09-23T09:28:40.547Z,741
2022-09-23T09:30:24.055Z,740
2022-09-23T09:32:07.755Z,741
2022-09-23T09:33:51.463Z,742
2022-09-23T09:35:35.205Z,741
2022-09-23T09:37:18.870Z,741
2022-09-23T09:39:02.657Z,741
2022-09-23T09:42:29.974Z,741
2022-09-23T09:44:13.674Z,741
2022-09-23T09:45:57.377Z,741
2022-09-23T09:47:41.078Z,741
2022-09-23T09:49:24.783Z,741
2022-09-23T09:51:08.496Z,740
2022-09-23T09:52:52.128Z,741
2022-09-23T09:54:35.837Z,742
2022-09-23T09:56:19.552Z,740
2022-09-23T09:58:03.235Z,741
2022-09-23T09:59:46.937Z,742
2022-09-23T10:01:30.637Z,741
2022-09-23T10:03:14.353Z,740
2022-09-23T10:04:58.043Z,740
2022-09-23T10:06:41.745Z,741
2022-09-23T10:08:25.450Z,740
2022-09-23T10:10:09.157Z,741
2022-09-23T10:11:52.862Z,740
2022-09-23T10:13:36.550Z,740
2022-09-23T10:15:20.253Z,740
2022-09-23T10:17:03.959Z,740
2022-09-23T10:18:47.651Z,742
2022-09-23T10:20:31.502Z,742
2022-09-23T10:22:15.064Z,740
2022-09-23T10:23:58.774Z,740
2022-09-23T10:25:42.499Z,742
2022-09-23T10:27:26.172Z,742
2022-09-23T10:29:09.864Z,741
2022-09-23T10:30:53.572Z,741
2022-09-23T10:32:37.285Z,740
2022-09-23T10:34:20.976Z,742
2022-09-23T10:36:04.686Z,741
2022-09-23T10:37:48.380Z,740
2022-09-23T10:39:32.089Z,742
2022-09-23T10:41:15.798Z,742
2022-09-23T10:42:59.493Z,740
2022-09-23T10:44:43.199Z,741
2022-09-23T10:46:26.918Z,732
2022-09-23T10:48:10.611Z,742
2022-09-23T10:49:54.313Z,741
2022-09-23T10:51:38.008Z,742
2022-09-23T10:53:21.706Z,742
2022-09-23T10:55:05.420Z,741
2022-09-23T10:56:49.111Z,740
2022-09-23T10:58:32.835Z,741
2022-09-23T11:00:16.522Z,732
2022-09-23T11:02:00.222Z,741
2022-09-23T11:03:43.931Z,741
2022-09-23T11:05:27.631Z,742
2022-09-23T11:07:11.331Z,741
2022-09-23T11:08:55.041Z,741
2022-09-23T11:10:38.735Z,741
2022-09-23T11:12:22.442Z,741
2022-09-23T11:14:06.145Z,740
2022-09-23T11:15:49.844Z,741
2022-09-23T11:17:33.555Z,742
2022-09-23T11:19:17.252Z,741
2022-09-23T11:21:00.960Z,741
2022-09-23T11:22:44.670Z,741
2022-09-23T11:24:28.360Z,742
2022-09-23T11:26:12.067Z,741
2022-09-23T11:27:55.771Z,741
2022-09-23T11:29:39.465Z,741
2022-09-23T11:31:23.173Z,742
2022-09-23T11:33:06.877Z,734
2022-09-23T11:34:50.580Z,740
2022-09-23T11:36:34.292Z,741
2022-09-23T11:38:17.979Z,741
2022-09-23T11:40:01.700Z,742
2022-09-23T11:41:45.392Z,741
2022-09-23T11:43:29.089Z,742
2022-09-23T11:45:12.791Z,741
2022-09-23T11:46:56.499Z,734
2022-09-23T11:48:40.204Z,741
2022-09-23T11:50:23.908Z,742
2022-09-23T11:52:07.614Z,742
2022-09-23T11:53:51.305Z,743
2022-09-23T11:55:35.012Z,741
2022-09-23T11:57:18.706Z,741
2022-09-23T11:59:02.462Z,739
2022-09-23T12:00:46.119Z,741
2022-09-23T12:02:29.815Z,741
2022-09-23T12:04:13.635Z,742
2022-09-23T12:05:57.224Z,741
2022-09-23T12:07:40.931Z,741
2022-09-23T12:09:24.659Z,741
2022-09-23T12:11:08.343Z,741
2022-09-23T12:12:52.041Z,743
2022-09-23T12:14:35.844Z,740
2022-09-23T12:16:19.444Z,741
2022-09-23T12:18:03.199Z,741
2022-09-23T12:19:46.945Z,741
2022-09-23T12:21:30.547Z,741
2022-09-23T12:23:14.344Z,742
2022-09-23T12:24:57.949Z,742
2022-09-23T12:26:41.770Z,742
2022-09-23T12:28:25.520Z,741
2022-09-23T12:30:09.166Z,741
2022-09-23T12:31:52.916Z,742
2022-09-23T12:33:36.626Z,741
2022-09-23T12:35:20.167Z,741
2022-09-23T12:37:04.020Z,742
2022-09-23T12:38:47.727Z,733
2022-09-23T12:40:31.416Z,741
2022-09-23T12:42:15.106Z,741
2022-09-23T12:43:58.828Z,743
2022-09-23T12:45:42.533Z,742
2022-09-23T12:47:26.252Z,741
2022-09-23T12:49:09.788Z,740
2022-09-23T12:50:53.491Z,743
2022-09-23T12:52:37.195Z,742
2022-09-23T12:54:21.051Z,741
2022-09-23T12:56:04.601Z,742
2022-09-23T12:57:48.465Z,734
2022-09-23T12:59:32.179Z,742
2022-09-23T13:01:15.846Z,741
2022-09-23T13:02:59.524Z,742
2022-09-23T13:04:43.260Z,742
2022-09-23T13:06:26.958Z,742
2022-09-23T13:08:10.662Z,742
2022-09-23T13:09:54.342Z,742
2022-09-23T13:11:38.071Z,742
2022-09-23T13:13:21.765Z,741
2022-09-23T13:15:05.455Z,742
2022-09-23T13:16:49.174Z,733
2022-09-23T13:18:32.886Z,742
2022-09-23T13:20:16.554Z,737
2022-09-23T13:22:00.225Z,743
2022-09-23T13:23:43.968Z,742
2022-09-23T13:25:27.682Z,741
2022-09-23T13:27:11.379Z,741
2022-09-23T13:28:55.095Z,741
2022-09-23T13:30:38.746Z,742
2022-09-23T13:32:22.486Z,741
2022-09-23T13:34:06.194Z,740
2022-09-23T13:35:49.908Z,741
2022-09-23T13:37:33.609Z,741
2022-09-23T13:39:17.312Z,741
2022-09-23T13:41:00.987Z,742
2022-09-23T13:42:44.717Z,743
2022-09-23T13:44:28.391Z,741
2022-09-23T13:46:12.131Z,741
2022-09-23T13:47:55.760Z,742
2022-09-23T13:49:39.499Z,736
2022-09-23T13:51:23.218Z,741
2022-09-23T13:53:06.921Z,742
2022-09-23T13:54:50.607Z,742
2022-09-23T13:56:34.322Z,742
2022-09-23T13:58:18.048Z,741
2022-09-23T14:00:01.751Z,742
2022-09-23T14:01:45.287Z,742
2022-09-23T14:03:29.139Z,742
2022-09-23T14:05:12.829Z,741
2022-09-23T14:06:56.546Z,741
2022-09-23T14:08:40.233Z,734
2022-09-23T14:10:23.954Z,742
2022-09-23T14:12:07.695Z,742
2022-09-23T14:13:51.341Z,741
2022-09-23T14:15:35.096Z,742
2022-09-23T14:17:18.763Z,741
2022-09-23T14:19:02.458Z,742
2022-09-23T14:20:46.029Z,744
2022-09-23T14:22:29.876Z,742
2022-09-23T14:24:13.421Z,742
2022-09-23T14:25:57.285Z,742
2022-09-23T14:27:40.987Z,741
2022-09-23T14:29:24.690Z,743
2022-09-23T14:31:08.232Z,741
2022-09-23T14:32:52.082Z,741
2022-09-23T14:34:35.827Z,742
2022-09-23T14:36:19.510Z,742
2022-09-23T14:38:03.191Z,742
2022-09-23T14:39:46.904Z,742
2022-09-23T14:41:30.585Z,742
2022-09-23T14:43:14.288Z,741
2022-09-23T14:44:57.980Z,741
2022-09-23T14:46:41.697Z,742
2022-09-23T14:48:25.284Z,742
2022-09-23T14:50:08.984Z,741
2022-09-23T14:51:52.815Z,740
2022-09-23T14:53:36.397Z,743
2022-09-23T14:55:20.229Z,742
2022-09-23T14:57:03.895Z,740
2022-09-23T14:58:47.611Z,742
2022-09-23T15:02:15.033Z,742
2022-09-23T15:03:58.758Z,742
2022-09-23T15:05:42.425Z,741
2022-09-23T15:07:26.137Z,742
2022-09-23T15:09:09.842Z,741
2022-09-23T15:10:53.552Z,741
2022-09-23T15:14:20.796Z,742
2022-09-23T15:16:04.635Z,742
2022-09-23T15:17:48.346Z,741
2022-09-23T15:19:32.045Z,742
2022-09-23T15:21:15.741Z,742
2022-09-23T15:22:59.441Z,741
2022-09-23T15:24:43.212Z,733
2022-09-23T15:26:26.822Z,742
2022-09-23T15:28:10.560Z,743
2022-09-23T15:29:54.223Z,741
2022-09-23T15:31:37.826Z,741
2022-09-23T15:33:21.637Z,741
2022-09-23T15:35:05.375Z,741
2022-09-23T15:36:49.070Z,741
2022-09-23T15:38:32.741Z,741
2022-09-23T15:40:16.325Z,742
2022-09-23T15:42:00.193Z,742
2022-09-23T15:43:43.871Z,740
2022-09-23T15:45:27.435Z,742
2022-09-23T15:47:11.334Z,742
2022-09-23T15:48:54.957Z,741
2022-09-23T15:50:38.551Z,741
2022-09-23T15:52:22.374Z,742
2022-09-23T15:54:06.089Z,742
2022-09-23T15:55:49.721Z,741
2022-09-23T15:57:33.409Z,742
2022-09-23T15:59:17.151Z,741
2022-09-23T16:01:00.774Z,668
2022-09-23T16:02:44.489Z,628
2022-09-23T16:04:28.147Z,597
2022-09-23T16:06:11.861Z,572
2022-09-23T16:07:55.572Z,551
2022-09-23T16:09:39.252Z,531
2022-09-23T16:11:22.991Z,513
2022-09-23T16:13:06.698Z,490
2022-09-23T16:14:50.359Z,469
2022-09-23T16:16:34.101Z,446
2022-09-23T16:18:17.821Z,425
2022-09-23T16:20:01.474Z,404
2022-09-23T16:21:45.169Z,385
2022-09-23T16:23:28.876Z,365
2022-09-23T16:25:12.583Z,347
2022-09-23T16:26:56.285Z,329
2022-09-23T16:28:40.013Z,308
2022-09-23T16:30:23.771Z,287
2022-09-23T16:32:07.418Z,269
2022-09-23T16:33:51.132Z,256
2022-09-23T16:35:34.794Z,243
2022-09-23T16:37:18.625Z,228
2022-09-23T16:39:02.197Z,209
2022-09-23T16:40:45.894Z,194
2022-09-23T16:42:29.736Z,180
2022-09-23T16:44:13.307Z,169
2022-09-23T16:45:57.115Z,160
2022-09-23T16:47:40.790Z,152
2022-09-23T16:49:24.452Z,143
2022-09-23T16:51:08.137Z,136
2022-09-23T16:52:51.861Z,129
2022-09-23T16:54:35.523Z,120
2022-09-23T16:56:19.239Z,113
2022-09-23T16:58:02.986Z,105
2022-09-23T16:59:46.657Z,98
2022-09-23T17:01:30.325Z,90
2022-09-23T17:03:14.038Z,82
2022-09-23T17:04:57.731Z,74
2022-09-23T17:06:41.477Z,65
2022-09-23T17:08:25.202Z,57
2022-09-23T17:10:08.892Z,48
2022-09-23T17:11:52.590Z,41
2022-09-23T17:13:36.309Z,34
2022-09-23T17:15:19.937Z,27
2022-09-23T17:17:03.643Z,21
2022-09-23T17:18:47.420Z,18
2022-09-23T17:20:31.064Z,15
2022-09-23T17:22:14.829Z,14
2022-09-23T17:23:58.449Z,12
2022-09-23T17:25:42.152Z,11
2022-09-23T17:27:25.862Z,10
2022-09-23T17:29:09.655Z,8
2022-09-23T17:30:53.312Z,7
2022-09-23T17:32:36.971Z,7
2022-09-23T17:34:20.740Z,5
2022-09-23T17:36:04.373Z,5
2022-09-23T17:37:48.147Z,4
2022-09-23T17:39:31.831Z,3
2022-09-23T17:41:15.510Z,3
2022-09-23T17:42:59.177Z,2
2022-09-23T17:44:42.880Z,2
2022-09-23T17:46:26.592Z,2
2022-09-23T17:48:10.340Z,2
2022-09-23T17:49:54.020Z,2
2022-09-23T17:51:37.715Z,2
2022-09-23T17:53:21.386Z,2
2022-09-23T17:55:05.114Z,2
2022-09-23T17:56:48.807Z,2
2022-09-23T17:58:32.557Z,2
2022-09-23T18:00:16.297Z,2
2022-09-23T18:01:59.922Z,2
2022-09-23T18:03:43.610Z,2
2022-09-23T18:05:27.364Z,1
2022-09-23T18:07:11.103Z,2
2022-09-23T18:08:54.719Z,2
2022-09-23T18:10:38.508Z,2
2022-09-23T18:12:22.118Z,2
2022-09-23T18:14:05.822Z,2
2022-09-23T18:15:49.520Z,2
2022-09-23T18:17:33.231Z,2
2022-09-23T18:19:16.942Z,2
2022-09-23T18:21:00.650Z,2
2022-09-23T18:22:44.353Z,2
2022-09-23T18:24:28.042Z,2
2022-09-23T18:26:11.738Z,2
2022-09-23T18:27:55.446Z,2
2022-09-23T18:29:39.184Z,2
2022-09-23T18:31:22.876Z,2
2022-09-23T18:33:06.567Z,2
2022-09-23T18:34:50.283Z,1
2022-09-23T18:36:34.014Z,2
2022-09-23T18:38:17.659Z,2
2022-09-23T18:40:01.428Z,3
2022-09-23T18:41:45.132Z,3
2022-09-23T18:43:28.764Z,2
2022-09-23T18:45:12.489Z,2
2022-09-23T18:46:56.192Z,2
2022-09-23T18:48:39.880Z,2
2022-09-23T18:50:23.575Z,2
2022-09-23T18:52:07.285Z,2
2022-09-23T18:53:50.982Z,2
2022-09-23T18:55:34.681Z,2
2022-09-23T18:57:18.390Z,1
2022-09-23T18:59:02.108Z,2
2022-09-23T19:00:45.786Z,1
2022-09-23T19:02:29.505Z,2
2022-09-23T19:04:13.196Z,2
2022-09-23T19:05:56.896Z,2
2022-09-23T19:07:40.605Z,1
2022-09-23T19:09:24.368Z,2
2022-09-23T19:11:08.018Z,2
2022-09-23T19:12:51.704Z,2
2022-09-23T19:14:35.412Z,1
2022-09-23T19:16:19.113Z,2
2022-09-23T19:18:02.811Z,2
2022-09-23T19:19:46.528Z,2
2022-09-23T19:21:30.271Z,2
2022-09-23T19:23:13.942Z,2
2022-09-23T19:24:57.632Z,1
2022-09-23T19:26:41.345Z,2
2022-09-23T19:28:25.034Z,2
2022-09-23T19:30:08.735Z,10
2022-09-23T19:31:52.454Z,10
2022-09-23T19:33:36.143Z,10
2022-09-23T19:35:19.850Z,10
2022-09-23T19:37:03.680Z,11
2022-09-23T19:38:47.244Z,10
2022-09-23T19:40:30.977Z,10
2022-09-23T19:42:14.694Z,9
2022-09-23T19:43:58.351Z,11
2022-09-23T19:45:42.076Z,10
2022-09-23T19:47:25.768Z,10
2022-09-23T19:49:09.459Z,10
2022-09-23T19:50:53.175Z,10
2022-09-23T19:52:36.859Z,10
2022-09-23T19:54:20.563Z,10
2022-09-23T19:56:04.269Z,9
2022-09-23T19:57:47.967Z,9
2022-09-23T19:59:31.667Z,9
2022-09-23T20:01:15.380Z,9
2022-09-23T20:02:59.085Z,9
2022-09-23T20:04:42.773Z,9
2022-09-23T20:06:26.482Z,10
2022-09-23T20:08:10.181Z,10
2022-09-23T20:09:53.883Z,9
2022-09-23T20:11:37.587Z,9
2022-09-23T20:13:21.349Z,10
2022-09-23T20:15:05.039Z,9
2022-09-23T20:16:48.694Z,1
2022-09-23T20:18:32.393Z,3
2022-09-23T20:20:16.130Z,2
2022-09-23T20:21:59.799Z,2
2022-09-23T20:23:43.497Z,2
2022-09-23T20:25:27.279Z,2
2022-09-23T20:27:10.935Z,1
2022-09-23T20:28:54.648Z,2
2022-09-23T20:30:38.313Z,2
2022-09-23T20:32:22.032Z,1
2022-09-23T20:34:05.716Z,3
2022-09-23T20:35:49.424Z,2
2022-09-23T20:37:33.149Z,1
2022-09-23T20:39:16.866Z,2
2022-09-23T20:41:00.525Z,2
2022-09-23T20:42:44.218Z,2
2022-09-23T20:44:28.042Z,1
2022-09-23T20:46:11.630Z,1
2022-09-23T20:47:55.401Z,1
2022-09-23T20:49:39.041Z,1
2022-09-23T20:51:22.760Z,0
2022-09-23T20:53:06.444Z,1
2022-09-23T20:54:50.190Z,0
2022-09-23T20:56:33.838Z,1
2022-09-23T20:58:17.559Z,1
2022-09-23T21:00:01.245Z,1
2022-09-23T21:01:44.932Z,1
2022-09-23T21:03:28.639Z,2
2022-09-23T21:05:12.347Z,1
2022-09-23T21:06:56.054Z,0
2022-09-23T21:08:39.793Z,2
2022-09-23T21:10:23.496Z,3
2022-09-23T21:12:07.153Z,1
2022-09-23T21:13:50.896Z,1
2022-09-23T21:15:34.549Z,1
2022-09-23T21:17:18.321Z,2
2022-09-23T21:19:01.971Z,1
2022-09-23T21:20:45.663Z,1
2022-09-23T21:22:29.363Z,1
2022-09-23T21:24:13.072Z,2
2022-09-23T21:25:56.772Z,1
2022-09-23T21:27:40.474Z,2
2022-09-23T21:29:24.172Z,2
2022-09-23T21:31:07.878Z,9
2022-09-23T21:32:51.604Z,9
2022-09-23T21:34:35.345Z,10
2022-09-23T21:36:18.976Z,10
2022-09-23T21:38:02.693Z,9
2022-09-23T21:39:46.403Z,9
2022-09-23T21:41:30.099Z,17
2022-09-23T21:43:13.811Z,0
2022-09-23T21:44:57.504Z,1
2022-09-23T21:46:41.202Z,1
2022-09-23T21:48:24.883Z,1
2022-09-23T21:50:08.591Z,1
2022-09-23T21:51:52.303Z,1
2022-09-23T21:53:35.992Z,0
2022-09-23T21:55:19.701Z,2
2022-09-23T21:57:03.407Z,1
2022-09-23T21:58:47.102Z,2
2022-09-23T22:00:30.810Z,1
2022-09-23T22:02:14.503Z,2
2022-09-23T22:03:58.211Z,1
2022-09-23T22:05:41.930Z,2
2022-09-23T22:07:25.717Z,2
2022-09-23T22:09:09.315Z,2
2022-09-23T22:10:53.027Z,1
2022-09-23T22:12:36.713Z,2
2022-09-23T22:14:20.423Z,0
2022-09-23T22:16:04.125Z,1
2022-09-23T22:17:47.825Z,3
2022-09-23T22:19:31.553Z,1
2022-09-23T22:21:15.230Z,2
2022-09-23T22:22:58.930Z,1
2022-09-23T22:24:42.738Z,2
2022-09-23T22:26:26.330Z,1
2022-09-23T22:28:10.037Z,2
2022-09-23T22:29:53.762Z,2
2022-09-23T22:31:37.529Z,3
2022-09-23T22:33:21.139Z,3
2022-09-23T22:35:04.845Z,9
2022-09-23T22:36:48.542Z,10
2022-09-23T22:38:32.251Z,10
2022-09-23T22:40:15.944Z,9
2022-09-23T22:41:59.678Z,10
2022-09-23T22:43:43.469Z,18
2022-09-23T22:45:27.093Z,17
2022-09-23T22:47:10.756Z,18
2022-09-23T22:48:54.480Z,18
2022-09-23T22:50:38.156Z,18
2022-09-23T22:52:21.888Z,17
2022-09-23T22:54:05.583Z,16
2022-09-23T22:55:49.292Z,16
2022-09-23T22:57:33.007Z,10
2022-09-23T22:59:16.661Z,10
2022-09-23T23:01:00.405Z,10
2022-09-23T23:02:44.117Z,10
2022-09-23T23:04:27.818Z,10
2022-09-23T23:06:11.472Z,2
2022-09-23T23:07:55.187Z,1
2022-09-23T23:09:38.914Z,1
2022-09-23T23:11:22.585Z,2
2022-09-23T23:13:06.295Z,2
2022-09-23T23:14:49.985Z,1
2022-09-23T23:16:33.687Z,1
2022-09-23T23:18:17.396Z,1
2022-09-23T23:20:01.091Z,2
2022-09-23T23:21:44.815Z,9
2022-09-23T23:23:28.484Z,9
2022-09-23T23:25:12.227Z,10
2022-09-23T23:26:55.930Z,10
2022-09-23T23:28:39.601Z,8
2022-09-23T23:32:07.067Z,2
2022-09-23T23:33:50.702Z,2
2022-09-23T23:35:34.408Z,2
2022-09-23T23:37:18.105Z,1
2022-09-23T23:39:01.810Z,1
2022-09-23T23:40:45.518Z,2
2022-09-23T23:42:29.212Z,1
2022-09-23T23:44:12.922Z,1
2022-09-23T23:45:56.620Z,0
2022-09-23T23:47:40.318Z,1
2022-09-23T23:49:24.147Z,1
2022-09-23T23:51:07.727Z,1
2022-09-23T23:52:51.430Z,1
2022-09-23T23:54:35.133Z,1
2022-09-23T23:56:18.827Z,1
2022-09-23T23:58:02.578Z,2
2022-09-23T23:59:46.232Z,1
